Time;durP1;ratioP1;P1;durP2;ratioP2;P2;SDS_P1;SDS_P2;PMS_P1;PMS_P2;Temp;Humidity;BMP_temperature;BMP_pressure;BME280_temperature;BME280_humidity;BME280_pressure;Samples;Min_cycle;Max_cycle;Signal;HPM_P1;HPM_P2
2024/03/10 14:50:32;;;;;;;16.40;12.70;;;;;;;20.84;67.81;99462.38;108716;1281;544146;-48
2024/03/10 14:53:05;;;;;;;13.60;12.30;;;;;;;21.11;73.71;99449.17;111059;1267;21976;-36
2024/03/10 14:55:36;;;;;;;15.30;12.40;;;;;;;21.66;70.31;99444.40;111435;1267;22574;-60
2024/03/10 14:58:09;;;;;;;16.00;13.80;;;;;;;22.14;63.86;99444.53;111039;1267;22031;-48
2024/03/10 15:00:40;;;;;;;17.60;13.60;;;;;;;21.86;60.70;99449.16;111530;1253;22282;-52
2024/03/10 15:06:50;;;;;;;26.10;14.70;;;;;;;26.76;19.78;99280.42;109049;1280;544574;-42
2024/03/10 15:09:21;;;;;;;17.40;15.60;;;;;;;20.59;27.68;99278.09;111237;1260;21979;-40
2024/03/10 15:11:54;;;;;;;17.10;15.20;;;;;;;20.88;30.88;99292.41;110883;1256;21979;-42
2024/03/10 15:14:26;;;;;;;15.70;13.60;;;;;;;23.42;27.41;99296.29;111272;1267;21982;-41
2024/03/10 15:16:56;;;;;;;15.90;14.20;;;;;;;22.58;26.81;99294.86;111365;1268;23714;-39
2024/03/10 15:19:26;;;;;;;16.20;14.50;;;;;;;22.23;27.46;99291.94;111088;1265;369139;-44
2024/03/10 15:21:59;;;;;;;16.60;13.80;;;;;;;22.11;27.89;99289.58;111485;1261;23040;-46
2024/03/10 16:29:51;;;;;;;16.40;14.20;;;;;;;15.32;51.02;99402.77;85533;1287;27213908;-69
2024/03/10 16:34:50;;;;;;;16.40;14.60;;;;;;;17.61;42.10;99401.51;105053;1295;2844475;-70
2024/03/10 16:37:27;;;;;;;15.20;13.10;;;;;;;18.19;40.58;99398.85;109276;1272;68602;-73
2024/03/10 16:43:23;;;;;;;22.70;20.30;;;;;;;18.49;35.87;99408.90;107704;1292;548752;-78
2024/03/10 16:46:06;;;;;;;25.20;20.40;;;;;;;15.80;39.25;99411.44;109906;1267;22172;-79
2024/03/10 16:48:39;;;;;;;24.60;22.00;;;;;;;14.38;42.01;99405.21;109923;1268;23217;-78
2024/03/10 16:51:29;;;;;;;23.50;20.30;;;;;;;13.49;44.21;99405.69;109777;1269;21969;-79
2024/03/10 16:55:28;;;;;;;25.30;22.60;;;;;;;12.85;46.09;99408.67;109839;1270;21978;-79
2024/03/10 16:58:06;;;;;;;;;;;;;;;;;;;;;
2024/03/10 17:01:06;;;;;;;45.20;31.90;;;;;;;12.18;47.85;99412.11;110444;1267;21983;-79
2024/03/10 17:03:53;;;;;;;24.30;21.50;;;;;;;11.99;48.90;99415.30;109996;1270;21976;-78
2024/03/10 17:06:40;;;;;;;25.80;22.80;;;;;;;11.89;49.06;99411.17;109689;1270;23080;-79
2024/03/10 17:10:11;;;;;;;25.90;22.90;;;;;;;11.76;49.37;99408.70;109229;1268;358546;-79
2024/03/10 17:13:09;;;;;;;29.70;25.00;;;;;;;11.62;50.05;99402.39;109943;1267;22001;-80
2024/03/10 17:15:53;;;;;;;32.60;27.20;;;;;;;11.57;50.35;99402.79;109817;1265;23031;-81
2024/03/10 17:18:44;;;;;;;28.00;22.30;;;;;;;11.51;50.72;99403.13;110235;1266;21984;-78
2024/03/10 17:22:37;;;;;;;25.70;21.20;;;;;;;11.45;50.97;99399.41;110694;1258;21960;-83
2024/03/10 17:26:08;;;;;;;27.30;22.50;;;;;;;11.38;51.42;99398.64;109533;1274;21981;-83
2024/03/10 17:30:00;;;;;;;25.60;21.40;;;;;;;11.33;51.62;99402.28;109576;1274;21984;-83
2024/03/10 17:33:28;;;;;;;;;;;;;;;;;;;;;
2024/03/10 17:37:12;;;;;;;;;;;;;;;;;;;;;
2024/03/10 17:40:27;;;;;;;26.70;21.30;;;;;;;11.27;52.12;99407.27;108806;1283;22063;-85
2024/03/10 17:44:05;;;;;;;24.70;21.60;;;;;;;11.29;52.20;99402.66;108738;1280;21988;-84
2024/03/10 17:47:08;;;;;;;28.60;23.30;;;;;;;11.30;52.17;99408.68;108656;1284;23139;-84
2024/03/10 17:50:53;;;;;;;29.10;22.00;;;;;;;11.26;52.39;99411.20;108054;1289;23625;-84
2024/03/10 17:53:46;;;;;;;27.00;22.10;;;;;;;11.26;52.30;99406.63;108128;1292;24508;-84
2024/03/10 17:56:30;;;;;;;25.00;20.90;;;;;;;11.29;52.18;99403.83;107942;1292;22067;-84
2024/03/10 17:59:07;;;;;;;23.70;17.40;;;;;;;11.33;52.19;99408.27;108234;1287;23625;-84
2024/03/10 18:02:05;;;;;;;26.60;21.10;;;;;;;11.38;52.20;99406.41;108316;1286;22008;-84
2024/03/10 18:05:49;;;;;;;22.40;19.20;;;;;;;11.37;52.10;99406.14;108957;1277;21987;-82
2024/03/10 18:09:10;;;;;;;20.80;18.40;;;;;;;11.37;52.22;99405.08;108884;1278;21989;-83
2024/03/10 18:12:52;;;;;;;20.30;18.10;;;;;;;11.39;52.07;99404.22;108628;1284;23780;-83
2024/03/10 18:15:21;;;;;;;25.70;18.90;;;;;;;11.37;52.08;99401.02;108542;1283;21998;-84
2024/03/10 18:19:01;;;;;;;22.50;20.10;;;;;;;11.34;52.25;99399.52;108748;1282;23522;-84
2024/03/10 18:22:40;;;;;;;28.20;19.80;;;;;;;11.32;52.67;99402.34;108800;1283;23762;-84
2024/03/10 18:26:00;;;;;;;26.40;20.20;;;;;;;11.30;52.56;99403.55;109194;1271;23806;-85
2024/03/10 18:29:51;;;;;;;;;;;;;;;;;;;;;
2024/03/10 18:33:22;;;;;;;24.90;21.20;;;;;;;11.20;52.74;99398.89;110304;1267;22785;-83
2024/03/10 18:37:09;;;;;;;22.70;18.70;;;;;;;11.16;52.70;99401.83;109902;1269;23693;-83
2024/03/10 18:40:55;;;;;;;22.20;19.90;;;;;;;11.19;52.80;99403.02;109848;1270;21982;-83
2024/03/10 18:44:24;;;;;;;;;;;;;;;;;;;;;
2024/03/10 18:47:40;;;;;;;19.40;16.80;;;;;;;11.19;52.88;99403.31;109119;1276;23621;-84
2024/03/10 18:50:34;;;;;;;20.00;17.70;;;;;;;11.21;53.15;99402.61;109948;1268;23083;-83
2024/03/10 18:53:47;;;;;;;23.70;18.90;;;;;;;11.17;53.17;99401.19;109494;1273;23049;-85
2024/03/10 18:57:46;;;;;;;23.80;17.90;;;;;;;11.14;53.28;99397.47;109333;1273;21985;-84
2024/03/10 19:01:21;;;;;;;25.10;20.70;;;;;;;11.06;53.68;99401.86;109192;1276;22346;-82
2024/03/10 19:04:49;;;;;;;24.20;18.60;;;;;;;11.05;53.98;99405.26;109068;1278;21993;-82
2024/03/10 19:08:44;;;;;;;20.90;17.70;;;;;;;11.06;53.68;99401.84;109169;1278;22015;-84
2024/03/10 19:12:42;;;;;;;24.20;18.50;;;;;;;11.05;53.77;99407.39;108800;1283;24439;-84
2024/03/10 19:15:57;;;;;;;24.40;19.50;;;;;;;11.06;54.00;99407.46;108807;1283;21991;-86
2024/03/10 19:20:08;;;;;;;;;;;;;;;;;;;;;
2024/03/10 19:23:19;;;;;;;21.10;18.20;;;;;;;10.99;54.09;99416.02;107862;1295;22010;-86
2024/03/10 19:26:47;;;;;;;23.60;17.20;;;;;;;10.96;55.09;99409.86;107914;1291;22012;-85
2024/03/10 19:30:12;;;;;;;19.30;17.30;;;;;;;10.91;55.52;99410.02;107906;1296;23786;-84
2024/03/10 19:33:13;;;;;;;20.80;17.90;;;;;;;10.84;56.48;99404.83;108071;1293;25409;-85
2024/03/10 19:36:40;;;;;;;;;;;;;;;;;;;;;
2024/03/10 19:40:34;;;;;;;19.70;17.00;;;;;;;10.65;57.71;99405.02;107996;1293;22039;-85
2024/03/10 19:43:38;;;;;;;;;;;;;;;;;;;;;
2024/03/10 19:47:12;;;;;;;21.40;16.00;;;;;;;10.60;56.98;99417.45;108129;1288;22126;-86
2024/03/10 19:50:14;;;;;;;;;;;;;;;;;;;;;
2024/03/10 19:53:23;;;;;;;21.10;17.70;;;;;;;10.54;57.31;99419.16;109011;1276;22136;-83
2024/03/10 19:59:37;;;;;;;20.50;15.90;;;;;;;12.12;55.16;99430.99;108047;1288;544598;-80
2024/03/10 20:02:28;;;;;;;19.50;17.10;;;;;;;11.66;54.84;99430.58;110208;1268;21964;-80
2024/03/10 20:05:33;;;;;;;19.80;17.30;;;;;;;11.10;56.02;99430.02;109454;1272;23012;-79
2024/03/10 20:09:04;;;;;;;18.60;15.70;;;;;;;10.70;57.40;99429.09;108825;1278;24296;-81
2024/03/10 20:12:21;;;;;;;18.80;16.40;;;;;;;10.58;57.67;99429.04;108754;1263;371022;-79
2024/03/10 20:15:12;;;;;;;22.60;17.40;;;;;;;10.54;58.00;99431.84;109097;1269;21976;-78
2024/03/10 20:17:42;;;;;;;19.40;16.80;;;;;;;10.59;57.83;99434.42;108501;1281;22100;-79
2024/03/10 20:20:25;;;;;;;18.00;16.10;;;;;;;10.55;58.18;99433.90;108674;1273;21984;-79
2024/03/10 20:22:56;;;;;;;19.90;15.30;;;;;;;10.52;58.28;99434.11;108592;1282;22057;-80
2024/03/10 20:25:27;;;;;;;;;;;;;;;10.46;58.57;99442.52;108568;1281;23065;-80
2024/03/10 20:27:57;;;;;;;18.90;16.90;;;;;;;10.34;58.87;99441.77;108650;1282;22839;-80
2024/03/10 20:30:29;;;;;;;22.00;17.40;;;;;;;10.40;59.36;99442.52;108798;1281;22960;-80
2024/03/10 20:33:00;;;;;;;24.10;18.40;;;;;;;10.39;59.81;99441.70;108660;1276;23118;-78
2024/03/10 20:35:33;;;;;;;20.20;17.40;;;;;;;10.42;59.62;99449.20;109194;1272;23753;-78
2024/03/10 20:38:03;;;;;;;21.10;18.20;;;;;;;10.45;59.46;99453.13;108882;1276;21990;-78
2024/03/10 20:40:38;;;;;;;20.10;17.30;;;;;;;10.44;59.55;99449.38;109064;1276;23603;-79
2024/03/10 20:43:10;;;;;;;20.80;17.30;;;;;;;10.44;59.69;99454.48;109546;1270;22530;-78
2024/03/10 20:45:43;;;;;;;18.70;15.50;;;;;;;10.45;59.38;99453.67;109881;1270;21951;-79
2024/03/10 20:48:26;;;;;;;19.30;16.10;;;;;;;10.48;59.45;99454.34;109846;1270;21976;-80
2024/03/10 20:50:59;;;;;;;19.00;15.90;;;;;;;10.45;59.95;99452.81;109437;1270;23628;-78
2024/03/10 20:53:38;;;;;;;17.40;14.70;;;;;;;10.43;60.23;99455.98;110452;1262;22065;-79
2024/03/10 20:56:15;;;;;;;16.30;14.20;;;;;;;10.39;60.68;99461.45;110519;1263;21969;-79
2024/03/10 20:58:48;;;;;;;61.70;41.80;;;;;;;10.28;61.85;99458.44;110314;1262;22566;-79
2024/03/10 21:01:18;;;;;;;20.60;17.30;;;;;;;10.12;63.09;99456.03;110602;1263;21984;-79
2024/03/10 21:03:52;;;;;;;41.10;22.70;;;;;;;9.89;65.01;99456.73;110850;1257;23685;-78
2024/03/10 21:06:24;;;;;;;23.30;16.70;;;;;;;9.66;66.71;99455.41;110934;1257;22002;-79
2024/03/10 21:08:58;;;;;;;25.00;18.70;;;;;;;9.50;68.69;99453.94;110869;1257;21969;-79
2024/03/10 21:11:30;;;;;;;28.80;21.00;;;;;;;9.45;68.53;99453.46;110838;1257;21954;-81
2024/03/10 21:14:10;;;;;;;50.90;27.60;;;;;;;9.43;67.89;99454.43;110797;1258;23708;-79
2024/03/10 21:16:46;;;;;;;24.00;16.70;;;;;;;9.43;66.98;99455.52;110691;1257;22026;-76
2024/03/10 21:19:16;;;;;;;31.90;18.40;;;;;;;9.44;66.86;99453.86;110498;1263;23610;-78
2024/03/10 21:21:45;;;;;;;25.20;17.60;;;;;;;9.46;67.21;99449.77;110525;1263;22953;-80
2024/03/10 21:24:22;;;;;;;34.90;19.00;;;;;;;9.52;66.54;99449.02;110568;1263;21967;-78
2024/03/10 21:26:53;;;;;;;25.60;17.20;;;;;;;9.55;66.28;99449.27;110395;1267;23792;-78
2024/03/10 21:29:32;;;;;;;29.70;18.50;;;;;;;9.59;66.41;99444.42;109378;1274;23757;-78
2024/03/10 21:32:03;;;;;;;21.20;15.60;;;;;;;9.65;66.67;99442.56;109354;1274;22986;-79
2024/03/10 21:34:33;;;;;;;16.10;14.40;;;;;;;9.63;66.52;99445.15;109303;1261;23026;-80
2024/03/10 21:37:07;;;;;;;18.20;15.00;;;;;;;9.58;66.64;99442.55;109155;1274;24205;-80
2024/03/10 21:39:36;;;;;;;17.60;14.90;;;;;;;9.54;66.71;99442.38;109205;1274;21993;-80
2024/03/10 21:42:09;;;;;;;26.90;18.30;;;;;;;9.50;66.95;99439.48;109276;1274;21979;-78
2024/03/10 21:44:44;;;;;;;18.60;14.40;;;;;;;9.45;67.22;99437.42;109763;1268;23064;-79
2024/03/10 21:47:20;;;;;;;16.80;13.60;;;;;;;9.44;67.12;99442.74;109465;1266;23785;-79
2024/03/10 21:49:50;;;;;;;21.00;15.90;;;;;;;9.44;67.37;99442.83;110186;1266;21970;-79
2024/03/10 21:52:20;;;;;;;18.20;15.10;;;;;;;9.49;66.68;99440.65;110087;1266;21969;-78
2024/03/10 21:54:49;;;;;;;19.60;14.60;;;;;;;9.45;68.63;99443.42;110176;1266;24059;-79
2024/03/10 21:57:18;;;;;;;19.90;16.10;;;;;;;9.28;71.19;99433.37;110060;1264;23183;-78
2024/03/10 21:59:50;;;;;;;21.00;16.70;;;;;;;9.17;71.16;99431.41;110281;1264;23764;-80
2024/03/10 22:02:19;;;;;;;18.70;16.50;;;;;;;9.14;70.48;99426.73;110261;1264;22975;-79
2024/03/10 22:04:52;;;;;;;20.00;16.90;;;;;;;9.18;69.64;99421.34;110588;1258;23688;-79
2024/03/10 22:07:24;;;;;;;21.40;17.80;;;;;;;9.16;70.02;99424.65;110795;1258;21963;-75
2024/03/10 22:09:54;;;;;;;16.40;14.70;;;;;;;9.09;70.43;99419.59;110976;1258;21973;-80
2024/03/10 22:12:24;;;;;;;22.00;18.50;;;;;;;9.06;70.54;99414.69;110811;1258;21960;-78
2024/03/10 22:14:54;;;;;;;20.10;17.70;;;;;;;9.10;69.99;99412.68;110825;1258;22351;-77
2024/03/10 22:17:24;;;;;;;136.00;63.80;;;;;;;9.14;69.40;99419.49;110787;1258;21968;-78
2024/03/10 22:19:53;;;;;;;22.40;18.50;;;;;;;9.15;69.14;99408.58;110509;1264;23110;-78
2024/03/10 22:22:23;;;;;;;20.20;16.20;;;;;;;9.17;69.21;99413.52;110292;1264;22369;-78
2024/03/10 22:24:53;;;;;;;27.70;18.60;;;;;;;9.21;68.75;99420.71;110458;1260;23028;-76
2024/03/10 22:27:22;;;;;;;18.50;16.50;;;;;;;9.23;68.87;99410.02;110479;1252;23063;-78
2024/03/10 22:29:52;;;;;;;21.20;16.50;;;;;;;9.28;68.62;99415.80;110367;1264;22341;-76
2024/03/10 22:32:25;;;;;;;22.40;15.90;;;;;;;9.32;68.09;99414.79;110076;1264;21987;-78
2024/03/10 22:34:56;;;;;;;18.90;15.00;;;;;;;9.36;67.87;99415.45;109935;1259;23059;-76
2024/03/10 22:37:25;;;;;;;19.00;16.40;;;;;;;9.40;67.61;99417.11;110359;1258;21961;-76
2024/03/10 22:39:55;;;;;;;15.60;13.50;;;;;;;9.40;67.82;99410.55;110952;1258;23039;-78
2024/03/10 22:42:26;;;;;;;18.40;15.50;;;;;;;9.41;67.76;99409.45;110765;1258;23672;-77
2024/03/10 22:44:56;;;;;;;19.10;15.60;;;;;;;9.42;67.56;99402.90;110838;1258;21971;-78
2024/03/10 22:47:35;;;;;;;19.60;14.80;;;;;;;9.40;67.92;99390.70;110760;1258;21963;-78
2024/03/10 22:50:10;;;;;;;16.40;14.70;;;;;;;9.37;68.28;99386.80;110673;1258;21966;-76
2024/03/10 22:52:46;;;;;;;17.80;15.80;;;;;;;9.35;68.73;99389.74;110778;1258;21931;-78
2024/03/10 22:55:20;;;;;;;18.40;16.40;;;;;;;9.31;69.19;99386.19;110921;1258;21976;-77
2024/03/10 22:57:56;;;;;;;16.70;14.50;;;;;;;9.29;69.23;99396.53;110803;1257;21994;-79
2024/03/10 23:00:36;;;;;;;18.30;14.80;;;;;;;9.26;69.82;99391.89;111015;1255;23036;-78
2024/03/10 23:03:09;;;;;;;16.90;15.00;;;;;;;9.26;69.79;99391.00;110829;1257;23670;-79
2024/03/10 23:05:41;;;;;;;15.70;13.90;;;;;;;9.23;69.72;99387.54;111007;1257;23594;-77
2024/03/10 23:08:11;;;;;;;17.50;14.90;;;;;;;9.18;70.01;99386.73;110752;1257;24114;-75
2024/03/10 23:10:49;;;;;;;16.10;14.40;;;;;;;9.13;70.44;99385.56;110603;1258;21972;-77
2024/03/10 23:13:19;;;;;;;17.30;15.00;;;;;;;9.12;70.62;99380.04;110765;1257;23084;-78
2024/03/10 23:15:49;;;;;;;19.20;14.40;;;;;;;9.15;70.34;99378.38;111015;1258;21971;-79
2024/03/10 23:18:25;;;;;;;14.90;13.30;;;;;;;9.21;70.19;99377.87;110967;1258;22674;-78
2024/03/10 23:20:58;;;;;;;17.80;15.70;;;;;;;9.26;69.66;99380.61;110368;1264;21980;-76
2024/03/10 23:23:35;;;;;;;18.20;14.60;;;;;;;9.27;69.47;99382.30;110290;1264;21959;-77
2024/03/10 23:26:05;;;;;;;17.90;15.50;;;;;;;9.28;69.15;99380.30;110171;1264;22297;-79
2024/03/10 23:28:35;;;;;;;15.70;14.00;;;;;;;9.32;69.27;99375.59;110106;1264;23313;-77
2024/03/10 23:31:06;;;;;;;16.00;14.30;;;;;;;9.34;69.24;99379.52;110090;1264;23429;-77
2024/03/10 23:33:38;;;;;;;16.40;13.80;;;;;;;9.36;68.94;99375.42;110272;1258;22007;-77
2024/03/10 23:36:09;;;;;;;15.80;14.00;;;;;;;9.40;68.48;99379.52;109616;1271;23708;-76
2024/03/10 23:38:39;;;;;;;15.40;13.80;;;;;;;9.41;68.23;99383.12;109556;1264;21973;-78
2024/03/10 23:41:10;;;;;;;18.90;14.80;;;;;;;9.43;68.19;99376.95;110767;1261;23734;-78
2024/03/10 23:43:43;;;;;;;18.40;15.80;;;;;;;9.47;68.33;99376.33;110705;1261;22905;-79
2024/03/10 23:46:13;;;;;;;19.70;16.00;;;;;;;9.51;68.04;99379.31;110710;1261;21967;-79
2024/03/10 23:48:44;;;;;;;18.80;16.80;;;;;;;9.54;67.90;99380.12;110699;1261;21961;-78
2024/03/10 23:51:14;;;;;;;16.60;14.90;;;;;;;9.56;67.78;99375.79;110700;1261;21965;-79
2024/03/10 23:53:46;;;;;;;18.40;16.20;;;;;;;9.58;67.51;99377.20;110838;1254;21975;-80
2024/03/10 23:56:18;;;;;;;18.70;16.10;;;;;;;9.60;67.49;99379.50;111102;1254;22985;-76
2024/03/10 23:58:48;;;;;;;20.60;16.20;;;;;;;9.62;67.56;99380.01;111213;1254;21963;-77
